sensor_id;sensor_type;location;lat;lon;timestamp;temperature;humidity
20650;DHT22;10484;48.736;9.332;2022-07-29T00:00:06;22.70;1.00
20650;DHT22;10484;48.736;9.332;2022-07-29T00:02:32;22.70;1.00
20650;DHT22;10484;48.736;9.332;2022-07-29T00:04:58;22.70;1.00
20650;DHT22;10484;48.736;9.332;2022-07-29T00:07:24;22.70;1.00
20650;DHT22;10484;48.736;9.332;2022-07-29T00:09:50;22.60;1.00
20650;DHT22;10484;48.736;9.332;2022-07-29T00:12:16;22.60;1.00
20650;DHT22;10484;48.736;9.332;2022-07-29T00:14:42;22.60;1.00
20650;DHT22;10484;48.736;9.332;2022-07-29T00:17:08;22.60;1.00
20650;DHT22;10484;48.736;9.332;2022-07-29T00:19:34;22.50;1.00
20650;DHT22;10484;48.736;9.332;2022-07-29T00:22:00;22.50;1.00
20650;DHT22;10484;48.736;9.332;2022-07-29T00:24:26;22.50;1.00
20650;DHT22;10484;48.736;9.332;2022-07-29T00:26:52;22.40;1.00
20650;DHT22;10484;48.736;9.332;2022-07-29T00:29:17;22.40;1.00
20650;DHT22;10484;48.736;9.332;2022-07-29T00:31:43;22.40;1.00
20650;DHT22;10484;48.736;9.332;2022-07-29T00:34:09;22.40;1.00
20650;DHT22;10484;48.736;9.332;2022-07-29T00:36:55;22.40;1.00
20650;DHT22;10484;48.736;9.332;2022-07-29T00:39:20;22.30;1.00
20650;DHT22;10484;48.736;9.332;2022-07-29T00:41:46;22.30;1.00
20650;DHT22;10484;48.736;9.332;2022-07-29T00:44:12;22.30;1.00
20650;DHT22;10484;48.736;9.332;2022-07-29T00:46:37;22.30;1.00
20650;DHT22;10484;48.736;9.332;2022-07-29T00:49:03;22.20;1.00
20650;DHT22;10484;48.736;9.332;2022-07-29T00:51:30;22.20;1.00
20650;DHT22;10484;48.736;9.332;2022-07-29T00:53:56;22.20;1.00
20650;DHT22;10484;48.736;9.332;2022-07-29T00:56:22;22.10;1.00
20650;DHT22;10484;48.736;9.332;2022-07-29T00:58:48;22.10;1.00
20650;DHT22;10484;48.736;9.332;2022-07-29T01:01:15;22.10;1.00
20650;DHT22;10484;48.736;9.332;2022-07-29T01:03:41;22.10;1.00
20650;DHT22;10484;48.736;9.332;2022-07-29T01:06:07;22.00;1.00
20650;DHT22;10484;48.736;9.332;2022-07-29T01:08:33;22.00;1.00
20650;DHT22;10484;48.736;9.332;2022-07-29T01:11:00;21.90;1.00
20650;DHT22;10484;48.736;9.332;2022-07-29T01:13:26;21.90;1.00
20650;DHT22;10484;48.736;9.332;2022-07-29T01:16:01;21.90;1.00
20650;DHT22;10484;48.736;9.332;2022-07-29T01:18:33;21.90;1.00
20650;DHT22;10484;48.736;9.332;2022-07-29T01:26:47;21.70;1.00
20650;DHT22;10484;48.736;9.332;2022-07-29T01:39:53;21.60;1.00
20650;DHT22;10484;48.736;9.332;2022-07-29T01:42:30;21.50;1.00
20650;DHT22;10484;48.736;9.332;2022-07-29T01:45:14;21.50;1.00
20650;DHT22;10484;48.736;9.332;2022-07-29T01:50:17;21.50;1.00
20650;DHT22;10484;48.736;9.332;2022-07-29T01:52:52;21.40;1.00
20650;DHT22;10484;48.736;9.332;2022-07-29T01:55:20;21.40;1.00
20650;DHT22;10484;48.736;9.332;2022-07-29T01:57:48;21.40;1.00
20650;DHT22;10484;48.736;9.332;2022-07-29T02:00:16;21.30;1.00
20650;DHT22;10484;48.736;9.332;2022-07-29T02:02:44;21.30;1.00
20650;DHT22;10484;48.736;9.332;2022-07-29T02:05:14;21.30;1.00
20650;DHT22;10484;48.736;9.332;2022-07-29T02:07:40;21.20;1.00
20650;DHT22;10484;48.736;9.332;2022-07-29T02:10:08;21.20;1.00
20650;DHT22;10484;48.736;9.332;2022-07-29T02:12:35;21.20;1.00
20650;DHT22;10484;48.736;9.332;2022-07-29T02:15:03;21.10;1.00
20650;DHT22;10484;48.736;9.332;2022-07-29T02:17:33;21.10;1.00
20650;DHT22;10484;48.736;9.332;2022-07-29T02:20:03;21.10;1.00
20650;DHT22;10484;48.736;9.332;2022-07-29T02:22:31;21.10;1.00
20650;DHT22;10484;48.736;9.332;2022-07-29T02:24:59;21.00;1.00
20650;DHT22;10484;48.736;9.332;2022-07-29T02:27:26;21.00;1.00
20650;DHT22;10484;48.736;9.332;2022-07-29T02:29:54;21.00;1.00
20650;DHT22;10484;48.736;9.332;2022-07-29T02:32:21;21.00;1.00
20650;DHT22;10484;48.736;9.332;2022-07-29T02:34:48;20.90;1.00
20650;DHT22;10484;48.736;9.332;2022-07-29T02:37:16;20.90;1.00
20650;DHT22;10484;48.736;9.332;2022-07-29T02:39:43;20.90;1.00
20650;DHT22;10484;48.736;9.332;2022-07-29T02:42:12;20.80;1.00
20650;DHT22;10484;48.736;9.332;2022-07-29T02:44:39;20.80;1.00
20650;DHT22;10484;48.736;9.332;2022-07-29T02:47:17;20.80;1.00
20650;DHT22;10484;48.736;9.332;2022-07-29T02:50:06;20.70;1.00
20650;DHT22;10484;48.736;9.332;2022-07-29T02:55:14;20.70;1.00
20650;DHT22;10484;48.736;9.332;2022-07-29T03:00:10;20.60;1.00
20650;DHT22;10484;48.736;9.332;2022-07-29T03:02:40;20.60;1.00
20650;DHT22;10484;48.736;9.332;2022-07-29T03:05:11;20.50;1.00
20650;DHT22;10484;48.736;9.332;2022-07-29T03:07:38;20.50;1.00
20650;DHT22;10484;48.736;9.332;2022-07-29T03:10:06;20.50;1.00
20650;DHT22;10484;48.736;9.332;2022-07-29T03:12:34;20.50;1.00
20650;DHT22;10484;48.736;9.332;2022-07-29T03:15:01;20.40;1.00
20650;DHT22;10484;48.736;9.332;2022-07-29T03:17:27;20.40;1.00
20650;DHT22;10484;48.736;9.332;2022-07-29T03:19:53;20.40;1.00
20650;DHT22;10484;48.736;9.332;2022-07-29T03:22:20;20.30;1.00
20650;DHT22;10484;48.736;9.332;2022-07-29T03:24:46;20.30;1.00
20650;DHT22;10484;48.736;9.332;2022-07-29T03:27:11;20.30;1.00
20650;DHT22;10484;48.736;9.332;2022-07-29T03:29:37;20.30;1.00
20650;DHT22;10484;48.736;9.332;2022-07-29T03:32:05;20.30;1.00
20650;DHT22;10484;48.736;9.332;2022-07-29T03:34:31;20.20;1.00
20650;DHT22;10484;48.736;9.332;2022-07-29T03:36:57;20.20;1.00
20650;DHT22;10484;48.736;9.332;2022-07-29T03:39:24;20.20;1.00
20650;DHT22;10484;48.736;9.332;2022-07-29T03:41:54;20.20;1.00
20650;DHT22;10484;48.736;9.332;2022-07-29T03:44:21;20.10;1.00
20650;DHT22;10484;48.736;9.332;2022-07-29T03:46:48;20.10;1.00
20650;DHT22;10484;48.736;9.332;2022-07-29T03:49:16;20.10;1.00
20650;DHT22;10484;48.736;9.332;2022-07-29T03:51:42;20.10;1.00
20650;DHT22;10484;48.736;9.332;2022-07-29T03:54:08;20.00;1.00
20650;DHT22;10484;48.736;9.332;2022-07-29T03:56:38;20.00;1.00
20650;DHT22;10484;48.736;9.332;2022-07-29T03:59:04;20.00;1.00
20650;DHT22;10484;48.736;9.332;2022-07-29T04:01:33;19.90;1.00
20650;DHT22;10484;48.736;9.332;2022-07-29T04:04:00;19.90;1.00
20650;DHT22;10484;48.736;9.332;2022-07-29T04:06:26;19.90;1.00
20650;DHT22;10484;48.736;9.332;2022-07-29T04:08:51;19.90;1.00
20650;DHT22;10484;48.736;9.332;2022-07-29T04:11:17;19.90;1.00
20650;DHT22;10484;48.736;9.332;2022-07-29T04:13:43;19.80;1.00
20650;DHT22;10484;48.736;9.332;2022-07-29T04:16:08;19.80;1.00
20650;DHT22;10484;48.736;9.332;2022-07-29T04:18:34;19.80;1.00
20650;DHT22;10484;48.736;9.332;2022-07-29T04:21:00;19.80;1.00
20650;DHT22;10484;48.736;9.332;2022-07-29T04:23:27;19.80;1.00
20650;DHT22;10484;48.736;9.332;2022-07-29T04:25:54;19.80;1.00
20650;DHT22;10484;48.736;9.332;2022-07-29T04:28:20;19.70;1.00
20650;DHT22;10484;48.736;9.332;2022-07-29T04:30:45;19.70;1.00
20650;DHT22;10484;48.736;9.332;2022-07-29T04:33:11;19.70;1.00
20650;DHT22;10484;48.736;9.332;2022-07-29T04:35:37;19.70;1.00
20650;DHT22;10484;48.736;9.332;2022-07-29T04:38:04;19.60;1.00
20650;DHT22;10484;48.736;9.332;2022-07-29T04:40:30;19.60;1.00
20650;DHT22;10484;48.736;9.332;2022-07-29T04:42:56;19.60;1.00
20650;DHT22;10484;48.736;9.332;2022-07-29T04:45:22;19.60;1.00
20650;DHT22;10484;48.736;9.332;2022-07-29T04:47:47;19.60;1.00
20650;DHT22;10484;48.736;9.332;2022-07-29T04:50:13;19.60;1.00
20650;DHT22;10484;48.736;9.332;2022-07-29T04:52:38;19.60;1.00
20650;DHT22;10484;48.736;9.332;2022-07-29T04:55:05;19.60;1.00
20650;DHT22;10484;48.736;9.332;2022-07-29T04:57:31;19.60;1.00
20650;DHT22;10484;48.736;9.332;2022-07-29T04:59:56;19.60;1.00
20650;DHT22;10484;48.736;9.332;2022-07-29T05:02:22;19.60;1.00
20650;DHT22;10484;48.736;9.332;2022-07-29T05:04:48;19.50;1.00
20650;DHT22;10484;48.736;9.332;2022-07-29T05:07:14;19.50;1.00
20650;DHT22;10484;48.736;9.332;2022-07-29T05:09:41;19.50;1.00
20650;DHT22;10484;48.736;9.332;2022-07-29T05:12:07;19.50;1.00
20650;DHT22;10484;48.736;9.332;2022-07-29T05:14:33;19.50;1.00
20650;DHT22;10484;48.736;9.332;2022-07-29T05:16:58;19.50;1.00
20650;DHT22;10484;48.736;9.332;2022-07-29T05:19:24;19.50;1.00
20650;DHT22;10484;48.736;9.332;2022-07-29T05:21:50;19.40;1.00
20650;DHT22;10484;48.736;9.332;2022-07-29T05:24:16;19.40;1.00
20650;DHT22;10484;48.736;9.332;2022-07-29T05:26:41;19.50;1.00
20650;DHT22;10484;48.736;9.332;2022-07-29T05:29:07;19.40;1.00
20650;DHT22;10484;48.736;9.332;2022-07-29T05:31:33;19.40;1.00
20650;DHT22;10484;48.736;9.332;2022-07-29T05:33:59;19.40;1.00
20650;DHT22;10484;48.736;9.332;2022-07-29T05:36:25;19.50;1.00
20650;DHT22;10484;48.736;9.332;2022-07-29T05:38:51;19.40;1.00
20650;DHT22;10484;48.736;9.332;2022-07-29T05:41:20;19.50;1.00
20650;DHT22;10484;48.736;9.332;2022-07-29T05:43:46;19.50;1.00
20650;DHT22;10484;48.736;9.332;2022-07-29T05:46:12;19.50;1.00
20650;DHT22;10484;48.736;9.332;2022-07-29T05:48:39;19.50;1.00
20650;DHT22;10484;48.736;9.332;2022-07-29T05:51:05;19.40;1.00
20650;DHT22;10484;48.736;9.332;2022-07-29T05:53:30;19.40;1.00
20650;DHT22;10484;48.736;9.332;2022-07-29T05:55:56;19.40;1.00
20650;DHT22;10484;48.736;9.332;2022-07-29T05:58:22;19.50;1.00
20650;DHT22;10484;48.736;9.332;2022-07-29T06:00:47;19.40;1.00
20650;DHT22;10484;48.736;9.332;2022-07-29T06:03:13;19.50;1.00
20650;DHT22;10484;48.736;9.332;2022-07-29T06:05:39;19.40;1.00
20650;DHT22;10484;48.736;9.332;2022-07-29T06:08:05;19.50;1.00
20650;DHT22;10484;48.736;9.332;2022-07-29T06:10:36;19.50;1.00
20650;DHT22;10484;48.736;9.332;2022-07-29T06:13:02;19.50;1.00
20650;DHT22;10484;48.736;9.332;2022-07-29T06:15:28;19.50;1.00
20650;DHT22;10484;48.736;9.332;2022-07-29T06:17:54;19.50;1.00
20650;DHT22;10484;48.736;9.332;2022-07-29T06:20:19;19.50;1.00
20650;DHT22;10484;48.736;9.332;2022-07-29T06:22:45;19.60;1.00
20650;DHT22;10484;48.736;9.332;2022-07-29T06:25:11;19.50;1.00
20650;DHT22;10484;48.736;9.332;2022-07-29T06:27:37;19.50;1.00
20650;DHT22;10484;48.736;9.332;2022-07-29T06:30:03;19.50;1.00
20650;DHT22;10484;48.736;9.332;2022-07-29T06:32:32;19.60;1.00
20650;DHT22;10484;48.736;9.332;2022-07-29T06:34:57;19.60;1.00
20650;DHT22;10484;48.736;9.332;2022-07-29T06:37:23;19.60;1.00
20650;DHT22;10484;48.736;9.332;2022-07-29T06:39:49;19.60;1.00
20650;DHT22;10484;48.736;9.332;2022-07-29T06:42:34;19.60;1.00
20650;DHT22;10484;48.736;9.332;2022-07-29T06:45:00;19.70;1.00
20650;DHT22;10484;48.736;9.332;2022-07-29T06:47:26;19.70;1.00
20650;DHT22;10484;48.736;9.332;2022-07-29T06:49:51;19.70;1.00
20650;DHT22;10484;48.736;9.332;2022-07-29T06:52:17;19.70;1.00
20650;DHT22;10484;48.736;9.332;2022-07-29T06:54:42;19.70;1.00
20650;DHT22;10484;48.736;9.332;2022-07-29T06:57:13;19.80;1.00
20650;DHT22;10484;48.736;9.332;2022-07-29T06:59:39;19.70;1.00
20650;DHT22;10484;48.736;9.332;2022-07-29T07:02:04;19.80;1.00
20650;DHT22;10484;48.736;9.332;2022-07-29T07:04:30;19.80;1.00
20650;DHT22;10484;48.736;9.332;2022-07-29T07:06:55;19.80;1.00
20650;DHT22;10484;48.736;9.332;2022-07-29T07:09:22;19.80;1.00
20650;DHT22;10484;48.736;9.332;2022-07-29T07:11:47;19.90;1.00
20650;DHT22;10484;48.736;9.332;2022-07-29T07:14:13;19.90;1.00
20650;DHT22;10484;48.736;9.332;2022-07-29T07:16:39;19.90;1.00
20650;DHT22;10484;48.736;9.332;2022-07-29T07:19:04;19.90;1.00
20650;DHT22;10484;48.736;9.332;2022-07-29T07:21:30;20.00;1.00
20650;DHT22;10484;48.736;9.332;2022-07-29T07:23:58;20.00;1.00
20650;DHT22;10484;48.736;9.332;2022-07-29T07:26:24;20.00;1.00
20650;DHT22;10484;48.736;9.332;2022-07-29T07:28:49;20.00;1.00
20650;DHT22;10484;48.736;9.332;2022-07-29T07:31:15;20.10;1.00
20650;DHT22;10484;48.736;9.332;2022-07-29T07:33:40;20.10;1.00
20650;DHT22;10484;48.736;9.332;2022-07-29T07:36:06;20.10;1.00
20650;DHT22;10484;48.736;9.332;2022-07-29T07:38:32;20.20;1.00
20650;DHT22;10484;48.736;9.332;2022-07-29T07:40:57;20.20;1.00
20650;DHT22;10484;48.736;9.332;2022-07-29T07:43:23;20.20;1.00
20650;DHT22;10484;48.736;9.332;2022-07-29T07:45:49;20.30;1.00
20650;DHT22;10484;48.736;9.332;2022-07-29T07:48:14;20.30;1.00
20650;DHT22;10484;48.736;9.332;2022-07-29T07:50:40;20.30;1.00
20650;DHT22;10484;48.736;9.332;2022-07-29T07:53:06;20.40;1.00
20650;DHT22;10484;48.736;9.332;2022-07-29T07:55:31;20.40;1.00
20650;DHT22;10484;48.736;9.332;2022-07-29T07:57:57;20.50;1.00
20650;DHT22;10484;48.736;9.332;2022-07-29T08:00:23;20.60;1.00
20650;DHT22;10484;48.736;9.332;2022-07-29T08:02:48;20.70;1.00
20650;DHT22;10484;48.736;9.332;2022-07-29T08:05:15;20.70;1.00
20650;DHT22;10484;48.736;9.332;2022-07-29T08:07:45;20.80;1.00
20650;DHT22;10484;48.736;9.332;2022-07-29T08:10:12;20.90;1.00
20650;DHT22;10484;48.736;9.332;2022-07-29T08:12:37;20.90;1.00
20650;DHT22;10484;48.736;9.332;2022-07-29T08:15:03;21.00;1.00
20650;DHT22;10484;48.736;9.332;2022-07-29T08:17:29;21.10;1.00
20650;DHT22;10484;48.736;9.332;2022-07-29T08:19:55;21.20;1.00
20650;DHT22;10484;48.736;9.332;2022-07-29T08:22:21;21.30;1.00
20650;DHT22;10484;48.736;9.332;2022-07-29T08:24:46;21.40;1.00
20650;DHT22;10484;48.736;9.332;2022-07-29T08:27:18;21.40;1.00
20650;DHT22;10484;48.736;9.332;2022-07-29T08:29:45;21.50;1.00
20650;DHT22;10484;48.736;9.332;2022-07-29T08:32:10;21.60;1.00
20650;DHT22;10484;48.736;9.332;2022-07-29T08:34:36;21.70;1.00
20650;DHT22;10484;48.736;9.332;2022-07-29T08:37:02;21.80;1.00
20650;DHT22;10484;48.736;9.332;2022-07-29T08:39:28;21.90;1.00
20650;DHT22;10484;48.736;9.332;2022-07-29T08:41:53;22.00;1.00
20650;DHT22;10484;48.736;9.332;2022-07-29T08:44:20;22.10;1.00
20650;DHT22;10484;48.736;9.332;2022-07-29T08:46:48;22.20;1.00
20650;DHT22;10484;48.736;9.332;2022-07-29T08:49:15;22.30;1.00
20650;DHT22;10484;48.736;9.332;2022-07-29T08:51:40;22.40;1.00
20650;DHT22;10484;48.736;9.332;2022-07-29T08:54:09;22.50;1.00
20650;DHT22;10484;48.736;9.332;2022-07-29T08:56:35;22.60;1.00
20650;DHT22;10484;48.736;9.332;2022-07-29T08:59:04;22.80;1.00
20650;DHT22;10484;48.736;9.332;2022-07-29T09:01:32;22.90;1.00
20650;DHT22;10484;48.736;9.332;2022-07-29T09:03:59;23.00;1.00
20650;DHT22;10484;48.736;9.332;2022-07-29T09:06:31;23.10;1.00
20650;DHT22;10484;48.736;9.332;2022-07-29T09:08:59;23.20;1.00
20650;DHT22;10484;48.736;9.332;2022-07-29T09:11:25;23.30;1.00
20650;DHT22;10484;48.736;9.332;2022-07-29T09:13:51;23.50;1.00
20650;DHT22;10484;48.736;9.332;2022-07-29T09:16:16;23.60;1.00
20650;DHT22;10484;48.736;9.332;2022-07-29T09:18:44;23.70;1.00
20650;DHT22;10484;48.736;9.332;2022-07-29T09:21:13;23.80;1.00
20650;DHT22;10484;48.736;9.332;2022-07-29T09:24:11;23.90;1.00
20650;DHT22;10484;48.736;9.332;2022-07-29T09:26:42;24.00;1.00
20650;DHT22;10484;48.736;9.332;2022-07-29T09:29:14;24.10;1.00
20650;DHT22;10484;48.736;9.332;2022-07-29T09:31:45;24.20;1.00
20650;DHT22;10484;48.736;9.332;2022-07-29T09:34:12;24.30;1.00
20650;DHT22;10484;48.736;9.332;2022-07-29T09:36:40;24.50;1.00
20650;DHT22;10484;48.736;9.332;2022-07-29T09:39:06;24.60;1.00
20650;DHT22;10484;48.736;9.332;2022-07-29T09:41:50;24.70;1.00
20650;DHT22;10484;48.736;9.332;2022-07-29T09:44:21;24.80;1.00
20650;DHT22;10484;48.736;9.332;2022-07-29T09:46:59;24.90;1.00
20650;DHT22;10484;48.736;9.332;2022-07-29T09:49:32;25.00;1.00
20650;DHT22;10484;48.736;9.332;2022-07-29T09:52:05;25.10;1.00
20650;DHT22;10484;48.736;9.332;2022-07-29T09:54:31;25.20;1.00
20650;DHT22;10484;48.736;9.332;2022-07-29T09:57:03;25.30;1.00
20650;DHT22;10484;48.736;9.332;2022-07-29T09:59:29;25.40;1.00
20650;DHT22;10484;48.736;9.332;2022-07-29T10:01:55;25.50;1.00
20650;DHT22;10484;48.736;9.332;2022-07-29T10:04:21;25.60;1.00
20650;DHT22;10484;48.736;9.332;2022-07-29T10:07:00;25.60;1.00
20650;DHT22;10484;48.736;9.332;2022-07-29T10:09:26;25.70;1.00
20650;DHT22;10484;48.736;9.332;2022-07-29T10:12:08;25.80;1.00
20650;DHT22;10484;48.736;9.332;2022-07-29T10:14:35;25.90;1.00
20650;DHT22;10484;48.736;9.332;2022-07-29T10:17:05;26.00;1.00
20650;DHT22;10484;48.736;9.332;2022-07-29T10:19:32;26.10;1.00
20650;DHT22;10484;48.736;9.332;2022-07-29T10:21:59;26.20;1.00
20650;DHT22;10484;48.736;9.332;2022-07-29T10:24:26;26.30;1.00
20650;DHT22;10484;48.736;9.332;2022-07-29T10:26:58;26.40;1.00
20650;DHT22;10484;48.736;9.332;2022-07-29T10:29:25;26.50;1.00
20650;DHT22;10484;48.736;9.332;2022-07-29T10:32:20;26.60;1.00
20650;DHT22;10484;48.736;9.332;2022-07-29T10:35:18;26.70;1.00
20650;DHT22;10484;48.736;9.332;2022-07-29T10:46:36;27.00;1.00
20650;DHT22;10484;48.736;9.332;2022-07-29T10:49:19;27.00;1.00
20650;DHT22;10484;48.736;9.332;2022-07-29T10:52:06;27.10;1.00
20650;DHT22;10484;48.736;9.332;2022-07-29T10:57:20;27.20;1.00
20650;DHT22;10484;48.736;9.332;2022-07-29T10:59:51;27.20;1.00
20650;DHT22;10484;48.736;9.332;2022-07-29T11:05:09;27.30;1.00
20650;DHT22;10484;48.736;9.332;2022-07-29T11:07:36;27.30;1.00
20650;DHT22;10484;48.736;9.332;2022-07-29T11:15:07;27.40;1.00
20650;DHT22;10484;48.736;9.332;2022-07-29T11:20:44;27.50;1.00
20650;DHT22;10484;48.736;9.332;2022-07-29T11:23:31;27.50;1.00
20650;DHT22;10484;48.736;9.332;2022-07-29T11:31:40;27.30;1.00
20650;DHT22;10484;48.736;9.332;2022-07-29T11:39:35;26.50;1.00
20650;DHT22;10484;48.736;9.332;2022-07-29T11:47:24;25.50;1.00
20650;DHT22;10484;48.736;9.332;2022-07-29T11:49:50;25.20;1.00
20650;DHT22;10484;48.736;9.332;2022-07-29T11:52:18;25.10;1.00
20650;DHT22;10484;48.736;9.332;2022-07-29T11:54:44;25.00;1.00
20650;DHT22;10484;48.736;9.332;2022-07-29T11:57:13;24.90;1.00
20650;DHT22;10484;48.736;9.332;2022-07-29T11:59:41;24.70;1.00
20650;DHT22;10484;48.736;9.332;2022-07-29T12:02:07;24.60;1.00
20650;DHT22;10484;48.736;9.332;2022-07-29T12:04:34;24.60;1.00
20650;DHT22;10484;48.736;9.332;2022-07-29T12:07:13;24.60;1.00
20650;DHT22;10484;48.736;9.332;2022-07-29T12:09:38;24.60;1.00
20650;DHT22;10484;48.736;9.332;2022-07-29T12:12:04;24.50;1.00
20650;DHT22;10484;48.736;9.332;2022-07-29T12:14:33;24.50;1.00
20650;DHT22;10484;48.736;9.332;2022-07-29T12:16:59;24.40;1.00
20650;DHT22;10484;48.736;9.332;2022-07-29T12:19:27;24.30;1.00
20650;DHT22;10484;48.736;9.332;2022-07-29T12:21:54;24.30;1.00
20650;DHT22;10484;48.736;9.332;2022-07-29T12:24:21;24.20;1.00
20650;DHT22;10484;48.736;9.332;2022-07-29T12:26:57;24.20;1.00
20650;DHT22;10484;48.736;9.332;2022-07-29T12:29:24;24.20;1.00
20650;DHT22;10484;48.736;9.332;2022-07-29T12:31:53;24.10;1.00
20650;DHT22;10484;48.736;9.332;2022-07-29T12:34:22;24.10;1.00
20650;DHT22;10484;48.736;9.332;2022-07-29T12:36:48;24.00;1.00
20650;DHT22;10484;48.736;9.332;2022-07-29T12:39:16;23.90;1.00
20650;DHT22;10484;48.736;9.332;2022-07-29T12:41:42;23.90;1.00
20650;DHT22;10484;48.736;9.332;2022-07-29T12:44:08;23.80;1.00
20650;DHT22;10484;48.736;9.332;2022-07-29T12:46:34;23.80;1.00
20650;DHT22;10484;48.736;9.332;2022-07-29T12:49:00;23.70;1.00
20650;DHT22;10484;48.736;9.332;2022-07-29T12:51:37;23.70;1.00
20650;DHT22;10484;48.736;9.332;2022-07-29T12:54:10;23.70;1.00
20650;DHT22;10484;48.736;9.332;2022-07-29T12:56:43;23.70;1.00
20650;DHT22;10484;48.736;9.332;2022-07-29T12:59:14;23.60;1.00
20650;DHT22;10484;48.736;9.332;2022-07-29T13:01:40;23.60;1.00
20650;DHT22;10484;48.736;9.332;2022-07-29T13:04:05;23.50;1.00
20650;DHT22;10484;48.736;9.332;2022-07-29T13:06:42;23.50;1.00
20650;DHT22;10484;48.736;9.332;2022-07-29T13:09:14;23.50;1.00
20650;DHT22;10484;48.736;9.332;2022-07-29T13:11:50;23.40;1.00
20650;DHT22;10484;48.736;9.332;2022-07-29T13:14:33;23.40;1.00
20650;DHT22;10484;48.736;9.332;2022-07-29T13:17:05;23.40;1.00
20650;DHT22;10484;48.736;9.332;2022-07-29T13:19:44;23.40;1.00
20650;DHT22;10484;48.736;9.332;2022-07-29T13:22:13;23.30;1.00
20650;DHT22;10484;48.736;9.332;2022-07-29T13:24:53;23.30;1.00
20650;DHT22;10484;48.736;9.332;2022-07-29T13:27:25;23.20;1.00
20650;DHT22;10484;48.736;9.332;2022-07-29T13:29:51;23.10;1.00
20650;DHT22;10484;48.736;9.332;2022-07-29T13:32:21;23.10;1.00
20650;DHT22;10484;48.736;9.332;2022-07-29T13:34:47;23.10;1.00
20650;DHT22;10484;48.736;9.332;2022-07-29T13:37:13;23.10;1.00
20650;DHT22;10484;48.736;9.332;2022-07-29T13:39:39;23.10;1.00
20650;DHT22;10484;48.736;9.332;2022-07-29T13:42:06;23.00;1.00
20650;DHT22;10484;48.736;9.332;2022-07-29T13:44:32;23.00;1.00
20650;DHT22;10484;48.736;9.332;2022-07-29T13:46:58;23.00;1.00
20650;DHT22;10484;48.736;9.332;2022-07-29T13:49:26;23.00;1.00
20650;DHT22;10484;48.736;9.332;2022-07-29T13:51:53;23.00;1.00
20650;DHT22;10484;48.736;9.332;2022-07-29T13:54:19;23.00;1.00
20650;DHT22;10484;48.736;9.332;2022-07-29T13:56:45;23.00;1.00
20650;DHT22;10484;48.736;9.332;2022-07-29T13:59:11;23.00;1.00
20650;DHT22;10484;48.736;9.332;2022-07-29T14:01:37;22.90;1.00
20650;DHT22;10484;48.736;9.332;2022-07-29T14:04:03;23.00;1.00
20650;DHT22;10484;48.736;9.332;2022-07-29T14:06:28;22.90;1.00
20650;DHT22;10484;48.736;9.332;2022-07-29T14:08:54;23.00;1.00
20650;DHT22;10484;48.736;9.332;2022-07-29T14:11:20;23.00;1.00
20650;DHT22;10484;48.736;9.332;2022-07-29T14:13:46;22.90;1.00
20650;DHT22;10484;48.736;9.332;2022-07-29T14:16:12;23.00;1.00
20650;DHT22;10484;48.736;9.332;2022-07-29T14:18:37;22.90;1.00
20650;DHT22;10484;48.736;9.332;2022-07-29T14:21:03;22.90;1.00
20650;DHT22;10484;48.736;9.332;2022-07-29T14:23:29;22.90;1.00
20650;DHT22;10484;48.736;9.332;2022-07-29T14:25:54;22.90;1.00
20650;DHT22;10484;48.736;9.332;2022-07-29T14:28:20;22.90;1.00
20650;DHT22;10484;48.736;9.332;2022-07-29T14:30:46;22.90;1.00
20650;DHT22;10484;48.736;9.332;2022-07-29T14:33:12;22.80;1.00
20650;DHT22;10484;48.736;9.332;2022-07-29T14:35:38;22.70;1.00
20650;DHT22;10484;48.736;9.332;2022-07-29T14:38:04;22.70;1.00
20650;DHT22;10484;48.736;9.332;2022-07-29T14:40:29;22.70;1.00
20650;DHT22;10484;48.736;9.332;2022-07-29T14:42:55;22.60;1.00
20650;DHT22;10484;48.736;9.332;2022-07-29T14:45:21;22.60;1.00
20650;DHT22;10484;48.736;9.332;2022-07-29T14:47:46;22.60;1.00
20650;DHT22;10484;48.736;9.332;2022-07-29T14:50:12;22.70;1.00
20650;DHT22;10484;48.736;9.332;2022-07-29T14:52:38;22.70;1.00
20650;DHT22;10484;48.736;9.332;2022-07-29T14:55:04;22.70;1.00
20650;DHT22;10484;48.736;9.332;2022-07-29T14:57:30;22.70;1.00
20650;DHT22;10484;48.736;9.332;2022-07-29T14:59:56;22.70;1.00
20650;DHT22;10484;48.736;9.332;2022-07-29T15:02:22;22.70;1.00
20650;DHT22;10484;48.736;9.332;2022-07-29T15:04:48;22.70;1.00
20650;DHT22;10484;48.736;9.332;2022-07-29T15:07:14;22.70;1.00
20650;DHT22;10484;48.736;9.332;2022-07-29T15:09:41;22.70;1.00
20650;DHT22;10484;48.736;9.332;2022-07-29T15:12:07;22.70;1.00
20650;DHT22;10484;48.736;9.332;2022-07-29T15:14:35;22.60;1.00
20650;DHT22;10484;48.736;9.332;2022-07-29T15:17:01;22.60;1.00
20650;DHT22;10484;48.736;9.332;2022-07-29T15:19:27;22.60;1.00
20650;DHT22;10484;48.736;9.332;2022-07-29T15:21:53;22.60;1.00
20650;DHT22;10484;48.736;9.332;2022-07-29T15:24:19;22.60;1.00
20650;DHT22;10484;48.736;9.332;2022-07-29T15:26:45;22.60;1.00
20650;DHT22;10484;48.736;9.332;2022-07-29T15:29:11;22.70;1.00
20650;DHT22;10484;48.736;9.332;2022-07-29T15:31:37;22.70;1.00
20650;DHT22;10484;48.736;9.332;2022-07-29T15:34:03;22.60;1.00
20650;DHT22;10484;48.736;9.332;2022-07-29T15:36:28;22.70;1.00
20650;DHT22;10484;48.736;9.332;2022-07-29T15:38:54;22.60;1.00
20650;DHT22;10484;48.736;9.332;2022-07-29T15:41:20;22.70;1.00
20650;DHT22;10484;48.736;9.332;2022-07-29T15:43:47;22.70;1.00
20650;DHT22;10484;48.736;9.332;2022-07-29T15:46:15;22.70;1.00
20650;DHT22;10484;48.736;9.332;2022-07-29T15:49:00;22.70;1.00
20650;DHT22;10484;48.736;9.332;2022-07-29T15:51:26;22.70;1.00
20650;DHT22;10484;48.736;9.332;2022-07-29T15:53:51;22.80;1.00
20650;DHT22;10484;48.736;9.332;2022-07-29T15:56:17;22.80;1.00
20650;DHT22;10484;48.736;9.332;2022-07-29T15:58:43;22.80;1.00
20650;DHT22;10484;48.736;9.332;2022-07-29T16:01:09;22.80;1.00
20650;DHT22;10484;48.736;9.332;2022-07-29T16:03:35;22.90;1.00
20650;DHT22;10484;48.736;9.332;2022-07-29T16:06:00;22.90;1.00
20650;DHT22;10484;48.736;9.332;2022-07-29T16:08:26;22.90;1.00
20650;DHT22;10484;48.736;9.332;2022-07-29T16:10:52;22.90;1.00
20650;DHT22;10484;48.736;9.332;2022-07-29T16:13:17;22.90;1.00
20650;DHT22;10484;48.736;9.332;2022-07-29T16:15:44;22.90;1.00
20650;DHT22;10484;48.736;9.332;2022-07-29T16:18:09;22.90;1.00
20650;DHT22;10484;48.736;9.332;2022-07-29T16:20:35;22.90;1.00
20650;DHT22;10484;48.736;9.332;2022-07-29T16:23:02;22.90;1.00
20650;DHT22;10484;48.736;9.332;2022-07-29T16:25:28;22.90;1.00
20650;DHT22;10484;48.736;9.332;2022-07-29T16:27:53;23.00;1.00
20650;DHT22;10484;48.736;9.332;2022-07-29T16:30:19;23.00;1.00
20650;DHT22;10484;48.736;9.332;2022-07-29T16:32:45;23.00;1.00
20650;DHT22;10484;48.736;9.332;2022-07-29T16:35:11;23.00;1.00
20650;DHT22;10484;48.736;9.332;2022-07-29T16:37:36;23.00;1.00
20650;DHT22;10484;48.736;9.332;2022-07-29T16:40:04;23.00;1.00
20650;DHT22;10484;48.736;9.332;2022-07-29T16:42:31;23.00;1.00
20650;DHT22;10484;48.736;9.332;2022-07-29T16:44:56;23.00;1.00
20650;DHT22;10484;48.736;9.332;2022-07-29T16:47:22;23.00;1.00
20650;DHT22;10484;48.736;9.332;2022-07-29T16:49:48;23.00;1.00